Riverdale, Nebraska
Current Conditions -  °F | °C
As of 10:15 PM on Wednesday 22 Oct 2014 (Local Time) from KEAR Reporting Station
Overcast Overcast  
Wind Chill: 52°   Ceiling: 100
Heat Index: 52°   Visibility: 0.25mi
Dew Point: 48°   Wind: 3mph
Humidity: 88%   Direction: 320°NW
Pressure: 30.06"   Gusts: NA
Location:  40.78°N, 99.16°W
Report Text: KEAR 230315Z 32003KT 1/4SM OVC001 11/09 A3006 RMK AO1
Loading
Personal Weather Stations






























Interactive Weather Map
Tropical Storm Tracking
New forecast layout! Learn more

10-Day Weather Forecast

Advertisements
Track Severe Weather on mobile